createdAt,value
2022-11-10T00:03:36.808Z,29.03
2022-11-10T00:08:57.662Z,28.30
2022-11-10T00:14:37.188Z,25.27
2022-11-10T00:19:58.316Z,27.13
2022-11-10T00:25:19.167Z,27.80
2022-11-10T00:30:43.342Z,26.73
2022-11-10T00:36:07.435Z,26.50
2022-11-10T00:41:28.468Z,25.17
2022-11-10T00:46:49.588Z,25.40
2022-11-10T00:52:10.493Z,24.93
2022-11-10T00:57:31.744Z,24.50
2022-11-10T01:02:52.465Z,25.83
2022-11-10T01:08:13.383Z,26.37
2022-11-10T01:13:35.358Z,24.07
2022-11-10T01:18:59.463Z,25.03
2022-11-10T01:24:21.881Z,25.33
2022-11-10T01:29:42.674Z,25.47
2022-11-10T01:35:04.142Z,23.40
2022-11-10T01:40:24.917Z,25.27
2022-11-10T01:45:47.440Z,23.80
2022-11-10T01:51:38.459Z,25.63
2022-11-10T01:57:06.750Z,22.67
2022-11-10T02:02:44.052Z,23.60
2022-11-10T02:08:06.009Z,23.60
2022-11-10T02:13:27.083Z,22.70
2022-11-10T02:18:49.102Z,20.77
2022-11-10T02:24:10.125Z,21.00
2022-11-10T02:29:31.022Z,19.40
2022-11-10T02:34:52.041Z,20.37
2022-11-10T02:40:13.019Z,20.43
2022-11-10T02:45:33.854Z,22.43
2022-11-10T02:50:54.715Z,22.33
2022-11-10T02:56:16.274Z,20.57
2022-11-10T03:01:37.147Z,19.83
2022-11-10T03:06:58.259Z,19.23
2022-11-10T03:12:19.555Z,21.60
2022-11-10T03:17:41.198Z,18.87
2022-11-10T03:23:04.350Z,20.37
2022-11-10T03:28:25.711Z,19.67
2022-11-10T03:33:46.706Z,20.03
2022-11-10T03:39:07.985Z,19.50
2022-11-10T03:44:28.959Z,18.73
2022-11-10T03:49:49.888Z,18.47
2022-11-10T03:55:17.103Z,19.53
2022-11-10T04:00:38.185Z,17.67
2022-11-10T04:06:17.602Z,19.90
2022-11-10T04:11:56.997Z,17.43
2022-11-10T04:17:17.856Z,17.70
2022-11-10T04:22:57.278Z,21.03
2022-11-10T04:28:18.346Z,18.53
2022-11-10T04:33:40.457Z,17.70
2022-11-10T04:39:02.001Z,17.80
2022-11-10T04:44:23.219Z,16.67
2022-11-10T04:49:44.141Z,15.63
2022-11-10T04:55:05.526Z,18.50
2022-11-10T05:00:26.639Z,15.23
2022-11-10T05:05:47.524Z,17.30
2022-11-10T05:11:09.065Z,17.60
2022-11-10T05:16:30.088Z,17.73
2022-11-10T05:21:51.038Z,13.63
2022-11-10T05:27:12.271Z,15.73
2022-11-10T05:32:33.472Z,14.10
2022-11-10T05:37:54.494Z,17.33
2022-11-10T05:43:15.439Z,15.57
2022-11-10T05:48:36.253Z,16.40
2022-11-10T05:53:57.307Z,17.53
2022-11-10T05:59:18.528Z,17.60
2022-11-10T06:55:42.426Z,10.57
2022-11-10T07:01:03.589Z,9.00
2022-11-10T07:06:24.803Z,8.73
2022-11-10T07:11:45.784Z,8.60
2022-11-10T07:17:06.619Z,9.00
2022-11-10T07:22:27.685Z,8.60
2022-11-10T07:27:56.606Z,9.67
2022-11-10T07:33:17.919Z,16.83
2022-11-10T07:38:38.938Z,11.70
2022-11-10T07:44:03.074Z,14.00
2022-11-10T07:49:24.060Z,12.17
2022-11-10T07:54:45.289Z,11.67
2022-11-10T08:00:07.438Z,12.43
2022-11-10T08:05:28.338Z,9.17
2022-11-10T08:10:49.610Z,12.20
2022-11-10T08:16:11.074Z,11.70
2022-11-10T08:21:32.046Z,15.17
2022-11-10T08:26:52.899Z,6.83
2022-11-10T08:32:14.056Z,10.73
2022-11-10T08:37:35.208Z,11.57
2022-11-10T08:43:00.638Z,10.77
2022-11-10T08:48:21.964Z,12.40
2022-11-10T08:53:42.806Z,11.07
2022-11-10T08:59:03.851Z,12.43
2022-11-10T09:04:25.173Z,9.63
2022-11-10T09:10:01.324Z,10.83
2022-11-10T09:15:27.886Z,8.60
2022-11-10T09:20:49.088Z,9.87
2022-11-10T09:26:09.870Z,3.70
2022-11-10T09:31:30.823Z,9.10
2022-11-10T09:36:51.887Z,4.30
2022-11-10T09:42:26.233Z,7.53
2022-11-10T09:48:02.129Z,4.50
2022-11-10T09:53:32.188Z,4.23
2022-11-10T09:58:53.495Z,9.33
2022-11-10T10:04:33.330Z,7.93
2022-11-10T10:10:20.878Z,7.80
2022-11-10T10:15:47.040Z,8.40
2022-11-10T10:21:11.325Z,8.10
2022-11-10T10:26:38.100Z,7.67
2022-11-10T10:32:04.361Z,3.07
2022-11-10T10:37:52.149Z,3.07
2022-11-10T10:43:13.934Z,2.90
2022-11-10T10:48:35.074Z,3.50
2022-11-10T10:53:55.931Z,3.73
2022-11-10T10:59:23.988Z,2.90
2022-11-10T11:04:45.385Z,5.60
2022-11-10T11:10:29.389Z,4.37
2022-11-10T11:15:59.408Z,5.67
2022-11-10T11:21:37.785Z,3.30
2022-11-10T11:27:25.335Z,2.77
2022-11-10T11:32:59.009Z,6.93
2022-11-10T11:49:43.571Z,3.03
2022-11-10T11:55:51.466Z,3.50
2022-11-10T12:01:44.573Z,4.80
2022-11-10T12:07:31.407Z,1.97
2022-11-10T12:13:37.366Z,4.47
2022-11-10T12:19:29.456Z,4.60
2022-11-10T12:25:21.686Z,5.73
2022-11-10T12:36:40.084Z,5.63
2022-11-10T12:42:21.386Z,3.13
2022-11-10T12:47:49.771Z,4.77
2022-11-10T12:53:34.133Z,4.90
2022-11-10T12:59:32.333Z,2.10
2022-11-10T13:05:23.749Z,5.03
2022-11-10T13:11:03.304Z,4.83
2022-11-10T13:16:46.293Z,2.70
2022-11-10T13:22:25.224Z,3.47
2022-11-10T13:27:50.072Z,2.10
2022-11-10T13:33:36.414Z,4.30
2022-11-10T13:38:57.964Z,3.53
2022-11-10T13:44:26.565Z,3.83
2022-11-10T13:50:14.860Z,2.43
2022-11-10T13:56:00.357Z,3.33
2022-11-10T14:01:27.089Z,3.30
2022-11-10T14:06:55.445Z,2.53
2022-11-10T14:12:28.789Z,4.10
2022-11-10T14:17:53.572Z,2.20
2022-11-10T14:23:49.700Z,3.57
2022-11-10T14:29:29.414Z,1.87
2022-11-10T14:34:52.508Z,2.90
2022-11-10T14:40:19.085Z,2.93
2022-11-10T14:45:51.133Z,4.70
2022-11-10T14:51:17.560Z,4.00
2022-11-10T14:56:45.385Z,2.50
2022-11-10T15:02:17.147Z,2.30
2022-11-10T15:07:38.108Z,2.83
2022-11-10T15:13:07.679Z,4.50
2022-11-10T15:18:30.192Z,3.63
2022-11-10T15:23:56.722Z,3.33
2022-11-10T15:29:23.119Z,2.60
2022-11-10T15:34:45.975Z,3.07
2022-11-10T15:40:30.339Z,3.67
2022-11-10T15:46:00.031Z,3.87
2022-11-10T15:51:26.312Z,3.60
2022-11-10T15:56:48.127Z,4.73
2022-11-10T16:02:27.587Z,4.50
2022-11-10T16:07:48.605Z,5.23
2022-11-10T16:13:12.910Z,7.93
2022-11-10T16:18:34.343Z,6.20
2022-11-10T16:23:55.244Z,7.13
2022-11-10T16:29:19.223Z,10.63
2022-11-10T16:34:40.591Z,13.37
2022-11-10T16:40:01.489Z,17.00
2022-11-10T16:45:30.310Z,14.60
2022-11-10T16:50:54.036Z,12.83
2022-11-10T16:56:17.522Z,11.77
2022-11-10T17:01:41.805Z,9.43
2022-11-10T17:07:02.796Z,10.47
2022-11-10T17:12:24.542Z,8.53
2022-11-10T17:17:48.711Z,12.57
2022-11-10T17:23:14.632Z,10.47
2022-11-10T17:28:36.207Z,14.83
2022-11-10T17:33:56.986Z,14.23
2022-11-10T17:39:18.757Z,14.60
2022-11-10T17:44:39.704Z,15.23
2022-11-10T17:50:00.650Z,16.57
2022-11-10T17:55:33.807Z,17.33
2022-11-10T18:00:55.965Z,11.53
2022-11-10T18:06:19.227Z,11.10
2022-11-10T18:11:40.269Z,9.80
2022-11-10T18:17:01.347Z,10.63
2022-11-10T18:22:22.267Z,9.03
2022-11-10T18:27:43.645Z,10.43
2022-11-10T18:33:06.172Z,9.57
2022-11-10T18:38:27.736Z,10.97
2022-11-10T18:43:49.230Z,7.37
2022-11-10T18:49:10.308Z,7.17
2022-11-10T18:54:31.463Z,8.53
2022-11-10T18:59:52.673Z,8.83
2022-11-10T19:05:13.892Z,9.80
2022-11-10T19:10:36.010Z,9.37
2022-11-10T19:16:00.385Z,9.00
2022-11-10T19:21:24.541Z,9.23
2022-11-10T19:26:52.874Z,13.00
2022-11-10T19:32:14.093Z,14.03
2022-11-10T19:37:36.752Z,14.30
2022-11-10T19:42:58.406Z,12.57
2022-11-10T19:48:19.465Z,12.50
2022-11-10T19:53:42.516Z,13.53
2022-11-10T19:59:04.198Z,14.17
2022-11-10T20:04:53.996Z,12.80
2022-11-10T20:10:15.780Z,14.73
2022-11-10T20:15:41.964Z,13.87
2022-11-10T20:21:08.693Z,13.23
2022-11-10T20:26:29.801Z,14.10
2022-11-10T20:31:50.620Z,14.33
2022-11-10T20:37:11.709Z,14.20
2022-11-10T20:42:33.446Z,14.30
2022-11-10T20:47:54.326Z,13.63
2022-11-10T20:53:15.246Z,14.10
2022-11-10T20:58:36.414Z,12.33
2022-11-10T21:03:57.606Z,14.60
2022-11-10T21:09:19.990Z,11.90
2022-11-10T21:14:40.834Z,10.23
2022-11-10T21:20:01.915Z,9.23
2022-11-10T21:25:22.685Z,8.80
2022-11-10T21:30:43.808Z,8.27
2022-11-10T21:36:06.930Z,8.70
2022-11-10T21:41:28.310Z,8.53
2022-11-10T21:46:49.373Z,8.30
2022-11-10T21:52:10.573Z,8.50
2022-11-10T21:57:31.681Z,8.67
2022-11-10T22:02:58.492Z,8.47
2022-11-10T22:08:21.873Z,8.90
2022-11-10T22:14:01.667Z,8.03
2022-11-10T22:19:22.629Z,8.40
2022-11-10T22:24:43.859Z,8.60
2022-11-10T22:30:05.221Z,9.33
2022-11-10T22:35:44.540Z,8.57
2022-11-10T22:41:24.676Z,8.63
2022-11-10T22:46:52.161Z,8.60
2022-11-10T22:52:12.826Z,9.50
2022-11-10T22:57:33.925Z,9.03
2022-11-10T23:02:55.013Z,8.47
2022-11-10T23:08:15.969Z,8.10
2022-11-10T23:13:38.253Z,7.87
2022-11-10T23:18:59.614Z,7.10
2022-11-10T23:24:22.906Z,7.03
2022-11-10T23:29:44.121Z,7.17
2022-11-10T23:35:05.568Z,8.50
2022-11-10T23:40:26.578Z,8.30
2022-11-10T23:46:05.782Z,6.70
2022-11-10T23:51:27.867Z,7.50
2022-11-10T23:56:48.763Z,9.10
